Time,TemperatureF,DewpointF,PressureIn,WindDirection,WindDirectionDegrees,WindSpeedMPH,WindSpeedGustMPH,Humidity,HourlyPrecipIn,Conditions,Clouds,dailyrainin,SoftwareType,DateUTC
2013-05-05 00:12:00,-999.0,-99.9,30.01,North,-999,-999.0,-999.0,-999,-99.99,,,0.00,weatherlink.com 1.10,2013-05-05 08:12:00,
2013-05-05 00:28:00,-999.0,-99.9,30.02,North,-999,-999.0,-999.0,-999,-99.99,,,0.00,weatherlink.com 1.10,2013-05-05 08:28:00,
2013-05-05 00:43:00,-999.0,-99.9,30.02,North,-999,-999.0,-999.0,-999,-99.99,,,0.00,weatherlink.com 1.10,2013-05-05 08:43:00,
2013-05-05 00:58:00,-999.0,-99.9,30.02,North,-999,-999.0,-999.0,-999,-99.99,,,0.00,weatherlink.com 1.10,2013-05-05 08:58:00,
2013-05-05 01:13:00,-999.0,-99.9,30.02,North,-999,-999.0,-999.0,-999,-99.99,,,0.00,weatherlink.com 1.10,2013-05-05 09:13:00,
2013-05-05 01:28:00,-999.0,-99.9,30.03,North,-999,-999.0,-999.0,-999,-99.99,,,0.00,weatherlink.com 1.10,2013-05-05 09:28:00,
2013-05-05 01:43:00,-999.0,-99.9,30.03,North,-999,-999.0,-999.0,-999,-99.99,,,0.00,weatherlink.com 1.10,2013-05-05 09:43:00,
2013-05-05 01:58:00,-999.0,-99.9,30.03,North,-999,-999.0,-999.0,-999,-99.99,,,0.00,weatherlink.com 1.10,2013-05-05 09:58:00,
2013-05-05 02:13:00,-999.0,-99.9,30.03,North,-999,-999.0,-999.0,-999,-99.99,,,0.00,weatherlink.com 1.10,2013-05-05 10:13:00,
2013-05-05 02:28:00,-999.0,-99.9,30.03,North,-999,-999.0,-999.0,-999,-99.99,,,0.00,weatherlink.com 1.10,2013-05-05 10:28:00,
2013-05-05 02:43:00,-999.0,-99.9,30.04,North,-999,-999.0,-999.0,-999,-99.99,,,0.00,weatherlink.com 1.10,2013-05-05 10:43:00,
2013-05-05 02:58:00,-999.0,-99.9,30.04,North,-999,-999.0,-999.0,-999,-99.99,,,0.00,weatherlink.com 1.10,2013-05-05 10:58:00,
2013-05-05 03:13:00,-999.0,-99.9,30.04,North,-999,-999.0,-999.0,-999,-99.99,,,0.00,weatherlink.com 1.10,2013-05-05 11:13:00,
2013-05-05 03:28:00,-999.0,-99.9,30.04,North,-999,-999.0,-999.0,-999,-99.99,,,0.00,weatherlink.com 1.10,2013-05-05 11:28:00,
2013-05-05 03:44:00,-999.0,-99.9,30.05,North,-999,-999.0,-999.0,-999,-99.99,,,0.00,weatherlink.com 1.10,2013-05-05 11:44:00,
2013-05-05 03:59:00,-999.0,-99.9,30.05,North,-999,-999.0,-999.0,-999,-99.99,,,0.00,weatherlink.com 1.10,2013-05-05 11:59:00,
2013-05-05 04:14:00,-999.0,-99.9,30.06,North,-999,-999.0,-999.0,-999,-99.99,,,0.00,weatherlink.com 1.10,2013-05-05 12:14:00,
2013-05-05 04:29:00,-999.0,-99.9,30.06,North,-999,-999.0,-999.0,-999,-99.99,,,0.00,weatherlink.com 1.10,2013-05-05 12:29:00,
2013-05-05 04:44:00,-999.0,-99.9,30.06,North,-999,-999.0,-999.0,-999,-99.99,,,0.00,weatherlink.com 1.10,2013-05-05 12:44:00,
2013-05-05 04:59:00,-999.0,-99.9,30.07,North,-999,-999.0,-999.0,-999,-99.99,,,0.00,weatherlink.com 1.10,2013-05-05 12:59:00,
2013-05-05 05:14:00,-999.0,-99.9,30.07,North,-999,-999.0,-999.0,-999,-99.99,,,0.00,weatherlink.com 1.10,2013-05-05 13:14:00,
2013-05-05 05:29:00,-999.0,-99.9,30.07,North,-999,-999.0,-999.0,-999,-99.99,,,0.00,weatherlink.com 1.10,2013-05-05 13:29:00,
2013-05-05 05:44:00,-999.0,-99.9,30.07,North,-999,-999.0,-999.0,-999,-99.99,,,0.00,weatherlink.com 1.10,2013-05-05 13:44:00,
2013-05-05 05:59:00,-999.0,-99.9,30.08,North,-999,-999.0,-999.0,-999,-99.99,,,0.00,weatherlink.com 1.10,2013-05-05 13:59:00,
2013-05-05 06:14:00,-999.0,-99.9,30.08,North,-999,-999.0,-999.0,-999,-99.99,,,0.00,weatherlink.com 1.10,2013-05-05 14:14:00,
2013-05-05 06:29:00,-999.0,-99.9,30.09,North,-999,-999.0,-999.0,-999,-99.99,,,0.00,weatherlink.com 1.10,2013-05-05 14:29:00,
2013-05-05 06:44:00,-999.0,-99.9,30.09,North,-999,-999.0,-999.0,-999,-99.99,,,0.00,weatherlink.com 1.10,2013-05-05 14:44:00,
2013-05-05 06:59:00,-999.0,-99.9,30.09,North,-999,-999.0,-999.0,-999,-99.99,,,0.00,weatherlink.com 1.10,2013-05-05 14:59:00,
2013-05-05 07:15:00,-999.0,-99.9,30.10,North,-999,-999.0,-999.0,-999,-99.99,,,0.00,weatherlink.com 1.10,2013-05-05 15:15:00,
2013-05-05 07:30:00,-999.0,-99.9,30.11,North,-999,-999.0,-999.0,-999,-99.99,,,0.00,weatherlink.com 1.10,2013-05-05 15:30:00,
2013-05-05 07:45:00,-999.0,-99.9,30.11,North,-999,-999.0,-999.0,-999,-99.99,,,0.00,weatherlink.com 1.10,2013-05-05 15:45:00,
2013-05-05 08:00:00,-999.0,-99.9,30.11,North,-999,-999.0,-999.0,-999,-99.99,,,0.00,weatherlink.com 1.10,2013-05-05 16:00:00,
2013-05-05 08:15:00,-999.0,-99.9,30.11,North,-999,-999.0,-999.0,-999,-99.99,,,0.00,weatherlink.com 1.10,2013-05-05 16:15:00,
2013-05-05 08:30:00,-999.0,-99.9,30.12,North,-999,-999.0,-999.0,-999,-99.99,,,0.00,weatherlink.com 1.10,2013-05-05 16:30:00,
2013-05-05 08:45:00,-999.0,-99.9,30.12,North,-999,-999.0,-999.0,-999,-99.99,,,0.00,weatherlink.com 1.10,2013-05-05 16:45:00,
2013-05-05 09:00:00,-999.0,-99.9,30.12,North,-999,-999.0,-999.0,-999,-99.99,,,0.00,weatherlink.com 1.10,2013-05-05 17:00:00,
2013-05-05 09:15:00,-999.0,-99.9,30.08,North,-999,-999.0,-999.0,-999,-99.99,,,0.00,weatherlink.com 1.10,2013-05-05 17:15:00,
2013-05-05 09:30:00,-999.0,-99.9,30.09,North,-999,-999.0,-999.0,-999,-99.99,,,0.00,weatherlink.com 1.10,2013-05-05 17:30:00,
2013-05-05 09:45:00,-999.0,-99.9,30.09,North,-999,-999.0,-999.0,-999,-99.99,,,0.00,weatherlink.com 1.10,2013-05-05 17:45:00,
2013-05-05 10:00:00,-999.0,-99.9,30.09,North,-999,-999.0,-999.0,-999,-99.99,,,0.00,weatherlink.com 1.10,2013-05-05 18:00:00,
2013-05-05 10:15:00,-999.0,-99.9,30.08,North,-999,-999.0,-999.0,-999,-99.99,,,0.00,weatherlink.com 1.10,2013-05-05 18:15:00,
2013-05-05 10:31:00,-999.0,-99.9,30.09,North,-999,-999.0,-999.0,-999,-99.99,,,0.00,weatherlink.com 1.10,2013-05-05 18:31:00,
2013-05-05 10:46:00,-999.0,-99.9,30.09,North,-999,-999.0,-999.0,-999,-99.99,,,0.00,weatherlink.com 1.10,2013-05-05 18:46:00,
2013-05-05 11:01:00,-999.0,-99.9,30.09,North,-999,-999.0,-999.0,-999,-99.99,,,0.00,weatherlink.com 1.10,2013-05-05 19:01:00,
2013-05-05 11:16:00,-999.0,-99.9,30.09,North,-999,-999.0,-999.0,-999,-99.99,,,0.00,weatherlink.com 1.10,2013-05-05 19:16:00,
2013-05-05 11:31:00,-999.0,-99.9,30.09,North,-999,-999.0,-999.0,-999,-99.99,,,0.00,weatherlink.com 1.10,2013-05-05 19:31:00,
2013-05-05 11:46:00,-999.0,-99.9,30.09,North,-999,-999.0,-999.0,-999,-99.99,,,0.00,weatherlink.com 1.10,2013-05-05 19:46:00,
2013-05-05 12:01:00,-999.0,-99.9,30.09,North,-999,-999.0,-999.0,-999,-99.99,,,0.00,weatherlink.com 1.10,2013-05-05 20:01:00,
2013-05-05 12:16:00,34.4,14.0,30.13,North,-999,0.0,-999.0,44,-99.99,,,0.00,weatherlink.com 1.10,2013-05-05 20:16:00,
2013-05-05 12:31:00,34.7,14.0,30.13,North,-999,0.0,-999.0,43,-99.99,,,0.00,weatherlink.com 1.10,2013-05-05 20:31:00,
2013-05-05 12:46:00,35.0,13.0,30.14,North,-999,0.0,-999.0,41,-99.99,,,0.00,weatherlink.com 1.10,2013-05-05 20:46:00,
2013-05-05 13:01:00,34.8,13.0,30.14,North,-999,0.0,-999.0,40,-99.99,,,0.00,weatherlink.com 1.10,2013-05-05 21:01:00,
2013-05-05 13:16:00,35.5,14.0,30.14,North,-999,0.0,-999.0,42,-99.99,,,0.00,weatherlink.com 1.10,2013-05-05 21:16:00,
2013-05-05 13:31:00,35.7,13.0,30.13,North,-999,0.0,-999.0,40,-99.99,,,0.00,weatherlink.com 1.10,2013-05-05 21:31:00,
2013-05-05 13:46:00,36.1,15.0,30.13,North,-999,0.0,-999.0,42,-99.99,,,0.00,weatherlink.com 1.10,2013-05-05 21:46:00,
2013-05-05 14:01:00,36.6,13.0,30.13,North,-999,0.0,-999.0,38,-99.99,,,0.00,weatherlink.com 1.10,2013-05-05 22:01:00,
2013-05-05 14:16:00,37.0,14.0,30.13,North,-999,0.0,-999.0,39,-99.99,,,0.00,weatherlink.com 1.10,2013-05-05 22:16:00,
2013-05-05 14:31:00,36.2,13.0,30.13,North,-999,0.0,-999.0,39,-99.99,,,0.00,weatherlink.com 1.10,2013-05-05 22:31:00,
2013-05-05 14:46:00,36.1,12.0,30.13,North,-999,0.0,-999.0,37,-99.99,,,0.00,weatherlink.com 1.10,2013-05-05 22:46:00,
2013-05-05 15:01:00,36.6,13.0,30.13,North,-999,0.0,-999.0,38,-99.99,,,0.00,weatherlink.com 1.10,2013-05-05 23:01:00,
2013-05-05 15:16:00,36.8,13.0,30.13,North,-999,0.0,-999.0,38,-99.99,,,0.00,weatherlink.com 1.10,2013-05-05 23:16:00,
2013-05-05 15:31:00,37.1,15.0,30.12,North,-999,0.0,-999.0,40,-99.99,,,0.00,weatherlink.com 1.10,2013-05-05 23:31:00,
2013-05-05 15:46:00,37.2,14.0,30.12,North,-999,0.0,-999.0,38,-99.99,,,0.00,weatherlink.com 1.10,2013-05-05 23:46:00,
2013-05-05 16:02:00,37.9,15.0,30.12,North,360,0.0,-999.0,39,-99.99,,,0.00,weatherlink.com 1.10,2013-05-06 00:02:00,
2013-05-05 16:17:00,37.3,13.0,30.12,North,-999,0.0,-999.0,37,-99.99,,,0.00,weatherlink.com 1.10,2013-05-06 00:17:00,
2013-05-05 16:33:00,37.9,16.0,30.12,North,-999,0.0,-999.0,41,-99.99,,,0.00,weatherlink.com 1.10,2013-05-06 00:33:00,
2013-05-05 16:47:00,37.3,15.0,30.12,North,-999,0.0,-999.0,41,-99.99,,,0.00,weatherlink.com 1.10,2013-05-06 00:47:00,
2013-05-05 17:02:00,37.3,17.0,30.12,North,-999,0.0,-999.0,43,-99.99,,,0.00,weatherlink.com 1.10,2013-05-06 01:02:00,
2013-05-05 17:17:00,37.1,14.0,30.12,North,360,0.0,-999.0,39,-99.99,,,0.00,weatherlink.com 1.10,2013-05-06 01:17:00,
2013-05-05 17:32:00,37.6,15.0,30.11,North,-999,0.0,-999.0,40,-99.99,,,0.00,weatherlink.com 1.10,2013-05-06 01:32:00,
2013-05-05 17:47:00,37.5,15.0,30.11,North,360,0.0,-999.0,40,-99.99,,,0.00,weatherlink.com 1.10,2013-05-06 01:47:00,
2013-05-05 18:02:00,38.0,16.0,30.11,North,-999,0.0,-999.0,41,-99.99,,,0.00,weatherlink.com 1.10,2013-05-06 02:02:00,
2013-05-05 18:17:00,37.9,15.0,30.11,North,-999,0.0,-999.0,39,-99.99,,,0.00,weatherlink.com 1.10,2013-05-06 02:17:00,
2013-05-05 18:32:00,37.7,15.0,30.11,North,-999,0.0,-999.0,40,-99.99,,,0.00,weatherlink.com 1.10,2013-05-06 02:32:00,
2013-05-05 18:47:00,37.6,14.0,30.10,North,-999,0.0,-999.0,38,-99.99,,,0.00,weatherlink.com 1.10,2013-05-06 02:47:00,
2013-05-05 19:02:00,37.3,14.0,30.11,North,360,0.0,-999.0,38,-99.99,,,0.00,weatherlink.com 1.10,2013-05-06 03:02:00,
2013-05-05 19:17:00,37.1,15.0,30.10,North,-999,0.0,-999.0,41,-99.99,,,0.00,weatherlink.com 1.10,2013-05-06 03:17:00,
2013-05-05 19:32:00,36.9,16.0,30.10,North,360,0.0,-999.0,42,-99.99,,,0.00,weatherlink.com 1.10,2013-05-06 03:32:00,
2013-05-05 19:47:00,37.3,14.0,30.10,North,-999,0.0,-999.0,39,-99.99,,,0.00,weatherlink.com 1.10,2013-05-06 03:47:00,
2013-05-05 20:02:00,37.0,15.0,30.10,North,-999,0.0,-999.0,40,-99.99,,,0.00,weatherlink.com 1.10,2013-05-06 04:02:00,
2013-05-05 20:17:00,36.8,16.0,30.10,North,-999,0.0,-999.0,43,-99.99,,,0.00,weatherlink.com 1.10,2013-05-06 04:17:00,
2013-05-05 20:32:00,36.7,13.0,30.11,North,360,0.0,-999.0,37,-99.99,,,0.00,weatherlink.com 1.10,2013-05-06 04:32:00,
2013-05-05 20:47:00,36.3,13.0,30.11,North,360,0.0,-999.0,39,-99.99,,,0.00,weatherlink.com 1.10,2013-05-06 04:47:00,
2013-05-05 21:02:00,35.9,15.0,30.11,North,-999,0.0,-999.0,42,-99.99,,,0.00,weatherlink.com 1.10,2013-05-06 05:02:00,
2013-05-05 21:17:00,35.8,13.0,30.11,North,-999,0.0,-999.0,39,-99.99,,,0.00,weatherlink.com 1.10,2013-05-06 05:17:00,
2013-05-05 21:32:00,34.9,15.0,30.11,North,-999,0.0,-999.0,44,-99.99,,,0.00,weatherlink.com 1.10,2013-05-06 05:32:00,
2013-05-05 21:47:00,34.3,14.0,30.12,North,-999,0.0,-999.0,44,-99.99,,,0.00,weatherlink.com 1.10,2013-05-06 05:47:00,
2013-05-05 22:02:00,33.9,14.0,30.12,North,-999,0.0,-999.0,45,-99.99,,,0.00,weatherlink.com 1.10,2013-05-06 06:02:00,
2013-05-05 22:17:00,-999.0,-99.9,30.08,North,-999,-999.0,-999.0,-999,-99.99,,,0.00,weatherlink.com 1.10,2013-05-06 06:17:00,
2013-05-05 22:32:00,-999.0,-99.9,30.08,North,-999,-999.0,-999.0,-999,-99.99,,,0.00,weatherlink.com 1.10,2013-05-06 06:32:00,
2013-05-05 22:47:00,-999.0,-99.9,30.08,North,-999,-999.0,-999.0,-999,-99.99,,,0.00,weatherlink.com 1.10,2013-05-06 06:47:00,
2013-05-05 23:02:00,-999.0,-99.9,30.08,North,-999,-999.0,-999.0,-999,-99.99,,,0.00,weatherlink.com 1.10,2013-05-06 07:02:00,
2013-05-05 23:17:00,-999.0,-99.9,30.08,North,-999,-999.0,-999.0,-999,-99.99,,,0.00,weatherlink.com 1.10,2013-05-06 07:17:00,
2013-05-05 23:32:00,-999.0,-99.9,30.08,North,-999,-999.0,-999.0,-999,-99.99,,,0.00,weatherlink.com 1.10,2013-05-06 07:32:00,
2013-05-05 23:47:00,-999.0,-99.9,30.08,North,-999,-999.0,-999.0,-999,-99.99,,,0.00,weatherlink.com 1.10,2013-05-06 07:47:00,